createdAt,value
2022-11-05T00:01:31.744Z,99318.69
2022-11-05T00:04:16.504Z,99312.85
2022-11-05T00:06:58.036Z,99317.69
2022-11-05T00:09:31.164Z,99315.30
2022-11-05T00:12:17.217Z,99319.30
2022-11-05T00:15:01.610Z,99316.71
2022-11-05T00:17:28.464Z,99302.05
2022-11-05T00:19:55.913Z,99306.14
2022-11-05T00:22:40.839Z,99307.52
2022-11-05T00:25:16.914Z,99316.08
2022-11-05T00:27:43.972Z,99316.86
2022-11-05T00:30:13.218Z,99322.29
2022-11-05T00:32:40.359Z,99321.09
2022-11-05T00:35:08.949Z,99315.39
2022-11-05T00:37:35.973Z,99302.56
2022-11-05T00:40:02.896Z,99311.23
2022-11-05T00:42:47.335Z,99306.17
2022-11-05T00:45:14.688Z,99322.44
2022-11-05T00:48:00.717Z,99306.87
2022-11-05T00:50:28.337Z,99306.30
2022-11-05T00:52:57.561Z,99295.05
2022-11-05T00:55:25.159Z,99289.58
2022-11-05T00:57:52.272Z,99289.45
2022-11-05T01:00:19.772Z,99290.09
2022-11-05T01:02:46.868Z,99296.95
2022-11-05T01:05:14.285Z,99293.36
2022-11-05T01:07:41.334Z,99284.92
2022-11-05T01:10:09.849Z,99284.95
2022-11-05T01:12:36.782Z,99284.94
2022-11-05T01:15:04.034Z,99286.46
2022-11-05T01:17:31.022Z,99292.81
2022-11-05T01:19:57.973Z,99294.70
2022-11-05T01:22:24.852Z,99294.00
2022-11-05T01:24:51.771Z,99298.73
2022-11-05T01:27:20.068Z,99305.96
2022-11-05T01:29:47.028Z,99304.45
2022-11-05T01:32:14.041Z,99312.11
2022-11-05T01:34:41.042Z,99305.67
2022-11-05T01:37:07.899Z,99313.10
2022-11-05T01:39:34.764Z,99310.96
2022-11-05T01:42:01.884Z,99319.21
2022-11-05T01:44:59.141Z,99321.07
2022-11-05T01:47:39.802Z,99319.86
2022-11-05T01:50:18.815Z,99320.63
2022-11-05T01:52:45.760Z,99327.86
2022-11-05T01:55:14.518Z,99329.42
2022-11-05T01:57:41.813Z,99332.08
2022-11-05T02:00:10.609Z,99331.44
2022-11-05T02:02:40.183Z,99332.14
2022-11-05T02:05:11.168Z,99332.02
2022-11-05T02:07:38.241Z,99319.63
2022-11-05T02:10:08.389Z,99331.57
2022-11-05T02:12:37.687Z,99332.37
2022-11-05T02:15:04.858Z,99335.80
2022-11-05T02:17:43.580Z,99339.95
2022-11-05T02:20:27.082Z,99331.11
2022-11-05T02:23:15.336Z,99328.19
2022-11-05T02:26:07.413Z,99329.14
2022-11-05T02:28:56.036Z,99321.80
2022-11-05T02:31:32.613Z,99320.39
2022-11-05T02:34:05.764Z,99323.66
2022-11-05T02:36:43.095Z,99324.23
2022-11-05T02:39:20.768Z,99329.27
2022-11-05T02:41:59.306Z,99323.77
2022-11-05T02:44:42.618Z,99334.66
2022-11-05T02:47:18.408Z,99335.95
2022-11-05T02:49:53.058Z,99344.16
2022-11-05T02:52:26.429Z,99344.43
2022-11-05T02:55:00.177Z,99355.52
2022-11-05T02:57:29.853Z,99367.75
2022-11-05T03:00:06.821Z,99365.29
2022-11-05T03:02:33.037Z,99368.78
2022-11-05T03:05:00.905Z,99367.10
2022-11-05T03:07:39.518Z,99356.77
2022-11-05T03:10:35.166Z,99363.48
2022-11-05T03:13:12.241Z,99354.02
2022-11-05T03:15:54.874Z,99357.21
2022-11-05T03:18:27.722Z,99360.09
2022-11-05T03:21:02.449Z,99362.58
2022-11-05T03:23:34.634Z,99367.14
2022-11-05T03:26:07.171Z,99377.19
2022-11-05T03:28:39.942Z,99374.87
2022-11-05T03:31:09.095Z,99374.08
2022-11-05T03:33:38.649Z,99381.67
2022-11-05T03:36:14.202Z,99380.92
2022-11-05T03:38:45.099Z,99383.41
2022-11-05T03:41:17.188Z,99375.49
2022-11-05T03:43:49.307Z,99376.10
2022-11-05T03:46:21.673Z,99377.77
2022-11-05T03:48:53.060Z,99383.26
2022-11-05T03:51:28.583Z,99387.68
2022-11-05T03:53:59.688Z,99387.67
2022-11-05T03:56:34.207Z,99389.00
2022-11-05T03:59:03.273Z,99392.35
2022-11-05T04:01:31.175Z,99398.54
2022-11-05T04:03:58.433Z,99403.22
2022-11-05T04:06:43.157Z,99410.67
2022-11-05T04:09:27.818Z,99413.18
2022-11-05T04:12:12.563Z,99409.14
2022-11-05T04:14:39.584Z,99413.87
2022-11-05T04:17:10.425Z,99414.80
2022-11-05T04:19:56.518Z,99405.28
2022-11-05T04:22:41.253Z,99407.02
2022-11-05T04:25:08.515Z,99414.17
2022-11-05T04:27:35.810Z,99416.27
2022-11-05T04:30:21.992Z,99425.30
2022-11-05T04:33:07.337Z,99435.14
2022-11-05T04:35:36.825Z,99433.39
2022-11-05T04:38:04.308Z,99431.60
2022-11-05T04:40:31.586Z,99436.89
2022-11-05T04:42:59.131Z,99448.39
2022-11-05T04:45:27.432Z,99446.47
2022-11-05T04:47:54.639Z,99446.50
2022-11-05T04:50:22.030Z,99453.40
2022-11-05T04:52:49.017Z,99464.45
2022-11-05T04:55:16.388Z,99470.04
2022-11-05T04:57:43.596Z,99465.27
2022-11-05T05:00:12.086Z,99472.11
2022-11-05T05:02:39.611Z,99475.02
2022-11-05T05:05:07.168Z,99481.19
2022-11-05T05:07:35.243Z,99485.13
2022-11-05T05:10:02.597Z,99482.80
2022-11-05T05:12:29.788Z,99481.52
2022-11-05T05:14:56.801Z,99473.56
2022-11-05T05:17:23.784Z,99470.39
2022-11-05T05:20:08.606Z,99468.73
2022-11-05T05:22:35.577Z,99476.96
2022-11-05T05:25:02.699Z,99482.60
2022-11-05T05:27:30.385Z,99485.97
2022-11-05T05:29:57.928Z,99479.98
2022-11-05T05:32:26.018Z,99481.74
2022-11-05T05:34:53.045Z,99490.55
2022-11-05T05:37:21.290Z,99490.59
2022-11-05T05:39:48.901Z,99498.27
2022-11-05T05:42:16.797Z,99500.64
2022-11-05T05:44:43.840Z,99503.36
2022-11-05T05:47:10.956Z,99498.40
2022-11-05T05:49:38.092Z,99507.27
2022-11-05T05:52:05.554Z,99508.02
2022-11-05T05:54:37.091Z,99508.59
2022-11-05T05:57:07.215Z,99512.80
2022-11-05T05:59:34.296Z,99520.48
2022-11-05T06:02:01.811Z,99519.30
2022-11-05T06:04:29.520Z,99518.17
2022-11-05T06:06:56.692Z,99516.44
2022-11-05T06:09:23.698Z,99518.56
2022-11-05T06:11:50.570Z,99533.46
2022-11-05T06:14:17.504Z,99543.15
2022-11-05T06:16:44.763Z,99533.11
2022-11-05T06:19:12.027Z,99531.70
2022-11-05T06:21:39.399Z,99541.03
2022-11-05T06:24:07.018Z,99538.48
2022-11-05T06:26:33.970Z,99539.36
2022-11-05T06:29:00.919Z,99542.83
2022-11-05T06:31:27.962Z,99546.65
2022-11-05T06:33:55.089Z,99546.49
2022-11-05T06:36:22.856Z,99546.09
2022-11-05T06:38:49.995Z,99544.13
2022-11-05T06:41:16.985Z,99551.42
2022-11-05T06:43:44.434Z,99551.20
2022-11-05T06:46:13.116Z,99553.60
2022-11-05T06:48:40.362Z,99558.58
2022-11-05T06:51:08.534Z,99555.23
2022-11-05T06:53:36.210Z,99548.27
2022-11-05T06:56:07.035Z,99552.52
2022-11-05T06:58:34.882Z,99547.59
2022-11-05T07:01:05.664Z,99557.33
2022-11-05T07:03:32.807Z,99558.15
2022-11-05T07:06:02.119Z,99566.02
2022-11-05T07:08:31.388Z,99563.88
2022-11-05T07:10:58.324Z,99563.61
2022-11-05T07:13:26.648Z,99557.31
2022-11-05T07:15:53.982Z,99568.80
2022-11-05T07:18:21.164Z,99570.45
2022-11-05T07:20:48.976Z,99573.31
2022-11-05T07:23:17.299Z,99564.42
2022-11-05T07:25:45.124Z,99572.80
2022-11-05T07:28:14.470Z,99570.64
2022-11-05T07:30:41.671Z,99574.20
2022-11-05T07:33:10.579Z,99568.27
2022-11-05T07:35:37.741Z,99566.13
2022-11-05T07:38:04.951Z,99578.84
2022-11-05T07:40:32.499Z,99592.27
2022-11-05T07:43:01.064Z,99594.83
2022-11-05T07:45:29.379Z,99594.42
2022-11-05T07:47:58.092Z,99602.33
2022-11-05T07:50:27.418Z,99604.67
2022-11-05T07:52:54.830Z,99610.33
2022-11-05T07:55:22.654Z,99613.99
2022-11-05T07:57:51.545Z,99617.65
2022-11-05T08:00:21.638Z,99613.48
2022-11-05T08:03:09.301Z,99625.83
2022-11-05T08:05:46.295Z,99638.95
2022-11-05T08:08:14.845Z,99640.92
2022-11-05T08:10:42.318Z,99641.28
2022-11-05T08:13:11.127Z,99639.41
2022-11-05T08:15:38.854Z,99635.06
2022-11-05T08:18:07.560Z,99639.23
2022-11-05T08:20:35.100Z,99635.41
2022-11-05T08:23:02.111Z,99639.00
2022-11-05T08:25:30.077Z,99634.73
2022-11-05T08:28:01.489Z,99634.26
2022-11-05T08:30:29.405Z,99636.00
2022-11-05T08:32:59.978Z,99635.11
2022-11-05T08:35:27.389Z,99630.90
2022-11-05T08:37:56.644Z,99634.86
2022-11-05T08:40:23.526Z,99641.14
2022-11-05T08:42:50.549Z,99644.09
2022-11-05T08:45:17.953Z,99648.23
2022-11-05T08:47:44.997Z,99644.29
2022-11-05T08:50:12.748Z,99637.33
2022-11-05T08:52:42.565Z,99634.16
2022-11-05T08:55:10.943Z,99634.64
2022-11-05T08:57:37.972Z,99639.95
2022-11-05T09:00:06.245Z,99650.21
2022-11-05T09:02:33.531Z,99657.06
2022-11-05T09:05:00.516Z,99666.93
2022-11-05T09:07:27.406Z,99677.95
2022-11-05T09:09:54.542Z,99679.01
2022-11-05T09:12:22.231Z,99678.17
2022-11-05T09:14:49.399Z,99676.75
2022-11-05T09:17:20.597Z,99683.97
2022-11-05T09:19:48.041Z,99683.95
2022-11-05T09:22:15.131Z,99683.70
2022-11-05T09:24:43.659Z,99686.21
2022-11-05T09:27:11.998Z,99683.56
2022-11-05T09:29:38.964Z,99688.05
2022-11-05T09:32:05.978Z,99682.32
2022-11-05T09:34:33.219Z,99683.98
2022-11-05T09:37:00.838Z,99688.30
2022-11-05T09:39:27.920Z,99691.02
2022-11-05T09:41:58.738Z,99688.34
2022-11-05T09:44:33.460Z,99694.64
2022-11-05T09:47:03.914Z,99703.41
2022-11-05T09:49:35.317Z,99712.67
2022-11-05T09:52:03.028Z,99708.40
2022-11-05T09:54:33.370Z,99719.18
2022-11-05T09:57:01.839Z,99722.51
2022-11-05T09:59:32.935Z,99726.48
2022-11-05T10:02:05.294Z,99727.10
2022-11-05T10:04:34.213Z,99727.56
2022-11-05T10:07:05.404Z,99725.41
2022-11-05T10:09:37.737Z,99732.88
2022-11-05T10:12:08.897Z,99737.92
2022-11-05T10:14:42.812Z,99743.11
2022-11-05T10:17:13.605Z,99749.84
2022-11-05T10:19:45.643Z,99752.15
2022-11-05T10:22:16.322Z,99751.21
2022-11-05T10:24:46.507Z,99752.41
2022-11-05T10:27:19.554Z,99753.12
2022-11-05T10:29:47.029Z,99759.88
2022-11-05T10:32:21.403Z,99758.48
2022-11-05T10:34:48.519Z,99761.92
2022-11-05T10:37:15.545Z,99762.55
2022-11-05T10:39:42.780Z,99769.29
2022-11-05T10:42:22.322Z,99774.64
2022-11-05T10:44:57.215Z,99772.08
2022-11-05T10:47:41.504Z,99767.80
2022-11-05T10:50:13.126Z,99765.38
2022-11-05T10:52:43.598Z,99761.34
2022-11-05T10:55:19.928Z,99761.27
2022-11-05T10:57:48.538Z,99762.93
2022-11-05T11:00:29.447Z,99759.66
2022-11-05T11:02:58.001Z,99761.97
2022-11-05T11:05:28.423Z,99760.23
2022-11-05T11:07:59.757Z,99765.45
2022-11-05T11:10:27.807Z,99769.23
2022-11-05T11:12:56.161Z,99774.09
2022-11-05T11:15:27.776Z,99774.91
2022-11-05T11:17:55.433Z,99780.21
2022-11-05T11:20:28.885Z,99784.23
2022-11-05T11:23:12.722Z,99784.89
2022-11-05T11:25:47.515Z,99785.42
2022-11-05T11:28:23.067Z,99783.31
2022-11-05T11:30:58.289Z,99783.77
2022-11-05T11:33:29.717Z,99788.20
2022-11-05T11:35:57.938Z,99789.74
2022-11-05T11:38:26.720Z,99791.87
2022-11-05T11:41:00.938Z,99792.70
2022-11-05T11:43:31.737Z,99791.28
2022-11-05T11:46:04.890Z,99791.56
2022-11-05T11:48:36.301Z,99791.66
2022-11-05T11:51:20.053Z,99794.73
2022-11-05T11:53:48.504Z,99794.97
2022-11-05T11:56:22.932Z,99796.98
2022-11-05T11:58:51.854Z,99799.21
2022-11-05T12:01:52.434Z,99805.64
2022-11-05T12:04:42.306Z,99814.51
2022-11-05T12:07:20.738Z,99814.90
2022-11-05T12:10:18.551Z,99818.90
2022-11-05T12:12:58.817Z,99826.36
2022-11-05T12:15:41.621Z,99824.27
2022-11-05T12:18:14.612Z,99826.50
2022-11-05T12:21:06.620Z,99832.40
2022-11-05T12:23:58.167Z,99832.08
2022-11-05T12:26:35.558Z,99831.26
2022-11-05T12:29:19.492Z,99830.13
2022-11-05T12:31:56.964Z,99830.25
2022-11-05T12:34:38.827Z,99834.50
2022-11-05T12:37:31.815Z,99831.16
2022-11-05T12:40:31.582Z,99828.69
2022-11-05T12:43:15.749Z,99822.52
2022-11-05T12:45:51.437Z,99818.69
2022-11-05T12:48:37.567Z,99815.04
2022-11-05T12:51:16.100Z,99820.11
2022-11-05T12:53:57.700Z,99825.20
2022-11-05T12:56:35.896Z,99823.73
2022-11-05T12:59:07.490Z,99827.68
2022-11-05T13:01:40.359Z,99832.00
2022-11-05T13:04:15.219Z,99832.37
2022-11-05T13:06:46.360Z,99826.13
2022-11-05T13:09:18.432Z,99825.60
2022-11-05T13:11:52.520Z,99818.52
2022-11-05T13:14:23.436Z,99809.73
2022-11-05T13:16:55.052Z,99810.80
2022-11-05T13:19:25.962Z,99827.83
2022-11-05T13:22:08.014Z,99841.16
2022-11-05T13:24:40.846Z,99839.44
2022-11-05T13:27:32.075Z,99841.68
2022-11-05T13:30:03.214Z,99846.20
2022-11-05T13:32:34.048Z,99851.22
2022-11-05T13:35:03.279Z,99854.16
2022-11-05T13:37:50.033Z,99858.67
2022-11-05T13:40:22.532Z,99861.42
2022-11-05T13:43:11.249Z,99866.80
2022-11-05T13:45:59.050Z,99869.41
2022-11-05T13:49:02.728Z,99872.34
2022-11-05T13:51:53.663Z,99879.39
2022-11-05T13:55:14.914Z,99884.33
2022-11-05T13:58:05.799Z,99886.52
2022-11-05T14:00:38.306Z,99882.96
2022-11-05T14:03:07.949Z,99884.05
2022-11-05T14:05:36.972Z,99888.13
2022-11-05T14:08:12.866Z,99891.79
2022-11-05T14:10:42.983Z,99900.10
2022-11-05T14:13:32.595Z,99904.13
2022-11-05T14:16:06.168Z,99905.73
2022-11-05T14:18:43.483Z,99911.05
2022-11-05T14:21:32.441Z,99914.58
2022-11-05T14:24:00.950Z,99920.96
2022-11-05T14:26:30.129Z,99926.40
2022-11-05T14:29:24.528Z,99924.77
2022-11-05T14:32:11.264Z,99925.60
2022-11-05T14:34:48.605Z,99930.23
2022-11-05T14:37:28.138Z,99933.48
2022-11-05T14:39:56.668Z,99934.98
2022-11-05T14:42:27.732Z,99934.94
2022-11-05T14:45:09.495Z,99942.08
2022-11-05T14:47:40.071Z,99944.29
2022-11-05T14:50:19.633Z,99947.86
2022-11-05T14:52:54.913Z,99946.77
2022-11-05T14:55:30.751Z,99949.09
2022-11-05T14:58:29.039Z,99948.05
2022-11-05T15:00:57.430Z,99947.92
2022-11-05T15:03:47.431Z,99947.77
2022-11-05T15:06:33.129Z,99951.31
2022-11-05T15:09:30.940Z,99947.61
2022-11-05T15:12:11.294Z,99953.44
2022-11-05T15:14:50.511Z,99959.23
2022-11-05T15:17:26.795Z,99958.08
2022-11-05T15:19:55.138Z,99954.15
2022-11-05T15:22:30.546Z,99960.56
2022-11-05T15:24:57.882Z,99961.59
2022-11-05T15:27:38.128Z,99969.05
2022-11-05T15:30:17.200Z,99967.52
2022-11-05T15:32:44.680Z,99971.16
2022-11-05T15:35:24.814Z,99970.02
2022-11-05T15:38:00.357Z,99970.91
2022-11-05T15:40:31.924Z,99973.77
2022-11-05T15:43:19.848Z,99978.73
2022-11-05T15:46:00.850Z,99982.40
2022-11-05T15:48:28.255Z,99979.83
2022-11-05T15:50:55.468Z,99983.84
2022-11-05T15:56:27.619Z,99976.54
2022-11-05T15:59:00.490Z,99981.85
2022-11-05T16:01:30.793Z,99985.73
2022-11-05T16:04:05.705Z,99988.86
2022-11-05T16:06:42.505Z,99992.96
2022-11-05T16:09:21.340Z,99990.83
2022-11-05T16:11:48.673Z,99995.41
2022-11-05T16:14:20.654Z,99995.71
2022-11-05T16:16:48.082Z,99996.39
2022-11-05T16:19:40.270Z,100005.33
2022-11-05T16:22:08.301Z,100006.11
2022-11-05T16:24:35.452Z,100008.13
2022-11-05T16:27:04.401Z,100015.23
2022-11-05T16:29:40.482Z,100018.33
2022-11-05T16:32:16.199Z,100016.14
2022-11-05T16:34:48.428Z,100022.59
2022-11-05T16:37:18.236Z,100031.35
2022-11-05T16:39:45.999Z,100030.98
2022-11-05T16:42:39.066Z,100041.11
2022-11-05T16:45:07.888Z,100049.17
2022-11-05T16:47:36.736Z,100049.84
2022-11-05T16:50:03.782Z,100048.81
2022-11-05T16:52:31.441Z,100052.16
2022-11-05T16:54:58.826Z,100054.04
2022-11-05T16:57:31.545Z,100061.75
2022-11-05T16:59:59.751Z,100059.79
2022-11-05T17:02:28.568Z,100060.15
2022-11-05T17:04:55.762Z,100061.70
2022-11-05T17:07:23.062Z,100065.10
2022-11-05T17:09:50.374Z,100071.84
2022-11-05T17:12:17.969Z,100077.36
2022-11-05T17:14:45.616Z,100079.48
2022-11-05T17:17:13.011Z,100080.79
2022-11-05T17:19:42.697Z,100085.69
2022-11-05T17:22:09.955Z,100092.81
2022-11-05T17:24:38.997Z,100096.41
2022-11-05T17:27:06.385Z,100095.95
2022-11-05T17:29:33.974Z,100093.98
2022-11-05T17:32:01.324Z,100096.31
2022-11-05T17:34:28.639Z,100098.41
2022-11-05T17:36:56.072Z,100102.86
2022-11-05T17:39:30.298Z,100100.02
2022-11-05T17:41:58.834Z,100105.45
2022-11-05T17:44:26.412Z,100107.24
2022-11-05T17:46:53.739Z,100107.98
2022-11-05T17:49:21.501Z,100108.08
2022-11-05T17:51:49.284Z,100108.00
2022-11-05T17:54:17.314Z,100109.54
2022-11-05T17:56:51.345Z,100115.29
2022-11-05T17:59:20.058Z,100116.36
2022-11-05T18:01:47.526Z,100120.71
2022-11-05T18:04:15.086Z,100121.11
2022-11-05T18:06:43.143Z,100125.30
2022-11-05T18:09:11.569Z,100127.62
2022-11-05T18:11:40.131Z,100130.75
2022-11-05T18:14:07.676Z,100131.06
2022-11-05T18:16:34.819Z,100129.10
2022-11-05T18:19:01.694Z,100128.91
2022-11-05T18:21:29.061Z,100128.23
2022-11-05T18:23:56.368Z,100130.73
2022-11-05T18:26:23.392Z,100131.38
2022-11-05T18:28:50.655Z,100129.84
2022-11-05T18:31:21.229Z,100134.73
2022-11-05T18:33:48.338Z,100141.29
2022-11-05T18:36:21.380Z,100142.63
2022-11-05T18:38:48.705Z,100142.42
2022-11-05T18:41:16.254Z,100144.23
2022-11-05T18:43:43.521Z,100140.69
2022-11-05T18:46:29.162Z,100145.48
2022-11-05T18:48:56.617Z,100143.67
2022-11-05T18:51:23.917Z,100141.91
2022-11-05T18:53:50.777Z,100145.34
2022-11-05T18:56:20.390Z,100149.02
2022-11-05T18:58:47.556Z,100151.64
2022-11-05T19:01:17.825Z,100149.58
2022-11-05T19:03:45.579Z,100147.58
2022-11-05T19:06:13.141Z,100154.61
2022-11-05T19:08:40.643Z,100158.98
2022-11-05T19:11:12.659Z,100166.15
2022-11-05T19:13:39.889Z,100172.50
2022-11-05T19:16:11.265Z,100169.75
2022-11-05T19:18:38.663Z,100169.60
2022-11-05T19:21:10.548Z,100165.30
2022-11-05T19:23:38.962Z,100168.51
2022-11-05T19:26:08.905Z,100167.51
2022-11-05T19:28:35.985Z,100172.96
2022-11-05T19:31:03.276Z,100176.62
2022-11-05T19:33:30.381Z,100177.13
2022-11-05T19:35:57.713Z,100185.11
2022-11-05T19:38:26.037Z,100191.69
2022-11-05T19:40:53.450Z,100190.84
2022-11-05T19:43:20.583Z,100195.82
2022-11-05T19:45:47.463Z,100198.84
2022-11-05T19:48:19.157Z,100204.16
2022-11-05T19:50:46.539Z,100205.81
2022-11-05T19:53:13.499Z,100205.52
2022-11-05T19:55:45.018Z,100209.28
2022-11-05T19:58:12.438Z,100214.59
2022-11-05T20:00:39.778Z,100213.68
2022-11-05T20:03:07.159Z,100214.87
2022-11-05T20:05:34.741Z,100219.85
2022-11-05T20:08:01.791Z,100218.95
2022-11-05T20:10:28.644Z,100217.04
2022-11-05T20:12:55.607Z,100224.46
2022-11-05T20:15:23.237Z,100230.33
2022-11-05T20:17:53.562Z,100227.52
2022-11-05T20:20:21.155Z,100229.41
2022-11-05T20:22:48.300Z,100227.59
2022-11-05T20:25:15.261Z,100229.15
2022-11-05T20:27:42.849Z,100232.09
2022-11-05T20:30:12.473Z,100235.21
2022-11-05T20:32:39.313Z,100239.32
2022-11-05T20:35:06.470Z,100247.56
2022-11-05T20:37:33.310Z,100248.58
2022-11-05T20:40:00.145Z,100247.19
2022-11-05T20:42:27.241Z,100252.05
2022-11-05T20:44:54.259Z,100253.59
2022-11-05T20:47:21.358Z,100254.10
2022-11-05T20:49:48.771Z,100251.48
2022-11-05T20:52:17.339Z,100251.10
2022-11-05T20:54:44.709Z,100255.62
2022-11-05T20:57:11.732Z,100264.12
2022-11-05T20:59:38.575Z,100262.04
2022-11-05T21:02:05.630Z,100264.10
2022-11-05T21:04:33.038Z,100265.61
2022-11-05T21:06:59.866Z,100266.95
2022-11-05T21:09:27.233Z,100264.52
2022-11-05T21:12:12.545Z,100264.73
2022-11-05T21:14:39.681Z,100267.75
2022-11-05T21:17:07.385Z,100270.35
2022-11-05T21:19:35.239Z,100271.23
2022-11-05T21:22:02.359Z,100275.03
2022-11-05T21:24:29.224Z,100267.27
2022-11-05T21:26:56.105Z,100269.96
2022-11-05T21:29:23.335Z,100265.98
2022-11-05T21:31:50.268Z,100272.60
2022-11-05T21:34:17.392Z,100270.55
2022-11-05T21:36:44.510Z,100272.02
2022-11-05T21:39:13.747Z,100275.33
2022-11-05T21:41:41.100Z,100280.39
2022-11-05T21:44:08.120Z,100277.25
2022-11-05T21:46:34.984Z,100283.50
2022-11-05T21:49:02.518Z,100280.70
2022-11-05T21:51:47.014Z,100280.94
2022-11-05T21:54:31.785Z,100277.85
2022-11-05T21:57:16.675Z,100276.63
2022-11-05T21:59:49.863Z,100280.30
2022-11-05T22:02:18.801Z,100275.30
2022-11-05T22:04:47.536Z,100274.30
2022-11-05T22:07:17.131Z,100275.77
2022-11-05T22:09:44.225Z,100275.95
2022-11-05T22:12:11.891Z,100274.89
2022-11-05T22:14:38.864Z,100279.73
2022-11-05T22:17:06.266Z,100279.81
2022-11-05T22:19:33.454Z,100278.38
2022-11-05T22:22:00.484Z,100280.00
2022-11-05T22:24:30.615Z,100283.17
2022-11-05T22:26:57.543Z,100291.23
2022-11-05T22:29:24.562Z,100297.14
2022-11-05T22:31:51.427Z,100296.98
2022-11-05T22:34:18.556Z,100298.90
2022-11-05T22:36:45.743Z,100305.30
2022-11-05T22:39:14.522Z,100306.86
2022-11-05T22:41:42.081Z,100313.27
2022-11-05T22:44:10.489Z,100307.91
2022-11-05T22:46:38.129Z,100307.58
2022-11-05T22:49:06.398Z,100309.89
2022-11-05T22:51:35.129Z,100312.54
2022-11-05T22:54:04.501Z,100311.15
2022-11-05T22:56:34.229Z,100309.74
2022-11-05T22:59:01.845Z,100308.75
2022-11-05T23:01:28.895Z,100304.44
2022-11-05T23:03:57.762Z,100304.15
2022-11-05T23:06:43.609Z,100304.66
2022-11-05T23:09:34.405Z,100305.91
2022-11-05T23:12:02.008Z,100309.81
2022-11-05T23:14:30.120Z,100310.94
2022-11-05T23:17:14.838Z,100310.84
2022-11-05T23:19:59.605Z,100318.52
2022-11-05T23:22:46.453Z,100313.75
2022-11-05T23:25:17.034Z,100313.35
2022-11-05T23:27:44.494Z,100314.84
2022-11-05T23:30:15.979Z,100312.84
2022-11-05T23:32:43.264Z,100308.92
2022-11-05T23:35:12.523Z,100310.89
2022-11-05T23:37:57.021Z,100312.73
2022-11-05T23:40:26.854Z,100312.61
2022-11-05T23:43:11.695Z,100312.48
2022-11-05T23:45:58.362Z,100310.09
2022-11-05T23:48:30.497Z,100306.10
2022-11-05T23:51:00.840Z,100311.48
2022-11-05T23:53:28.667Z,100308.58
2022-11-05T23:55:59.430Z,100308.98
2022-11-05T23:58:26.700Z,100310.57
